Terminal Aerodrome Forecast
Issued by NWS Corpus Christi, TX

Home | Current Version | Previous Version | Text Only | Print | Product List | Glossary On
Versions: 1 2 3 4 5 6 7 8 9 10 11 12 13 14 15
000
FTUS44 KCRP 031809 AAA
TAFCRP
TAF AMD
KCRP 031809Z 0318/0418 12012G20KT P6SM -SHRA VCTS SCT035CB BKN070
     FM032300 16009KT P6SM FEW030 BKN150
     FM040800 15004KT P6SM FEW015
     FM041400 15012KT P6SM SCT040=

USA.gov is the U.S. government's official web portal to all federal, state and local government web resources and services.